Time;durP1;ratioP1;P1;durP2;ratioP2;P2;SDS_P1;SDS_P2;PMS_P1;PMS_P2;Temp;Humidity;BMP_temperature;BMP_pressure;BME280_temperature;BME280_humidity;BME280_pressure;Samples;Min_cycle;Max_cycle;Signal;HPM_P1;HPM_P2
2023/02/01 00:01:25;;;;;;;3.13;1.45;;;16.90;51.50;;;;;;5082620;28;20461;-70
2023/02/01 00:03:50;;;;;;;6.32;1.38;;;16.90;51.40;;;;;;5082616;28;20082;-70
2023/02/01 00:06:16;;;;;;;1.73;1.30;;;16.80;51.60;;;;;;5082478;28;20050;-70
2023/02/01 00:08:42;;;;;;;1.65;1.13;;;16.70;51.30;;;;;;5082297;28;20120;-70
2023/02/01 00:11:11;;;;;;;2.80;1.00;;;16.70;51.70;;;;;;5082360;28;20032;-71
2023/02/01 00:13:38;;;;;;;4.57;1.27;;;16.60;51.40;;;;;;5082018;28;20016;-70
2023/02/01 00:16:17;;;;;;;4.32;1.23;;;16.60;51.90;;;;;;5082337;28;20236;-70
2023/02/01 00:18:46;;;;;;;2.70;1.08;;;16.50;51.70;;;;;;5082284;28;20012;-70
2023/02/01 00:21:18;;;;;;;4.05;1.45;;;16.50;52.10;;;;;;5080964;28;20099;-70
2023/02/01 00:23:44;;;;;;;4.15;1.27;;;16.50;52.20;;;;;;5082177;28;20059;-70
2023/02/01 00:26:22;;;;;;;3.28;0.93;;;16.50;51.80;;;;;;5082210;28;20029;-70
2023/02/01 00:28:48;;;;;;;2.50;1.35;;;16.50;52.10;;;;;;5082265;28;20028;-70
2023/02/01 00:31:14;;;;;;;7.25;1.77;;;16.50;52.20;;;;;;5082103;28;20108;-70
2023/02/01 00:33:40;;;;;;;4.28;1.40;;;16.60;52.20;;;;;;5082086;28;20013;-69
2023/02/01 00:36:13;;;;;;;4.53;1.90;;;16.70;52.30;;;;;;5082057;28;20048;-70
2023/02/01 00:38:39;;;;;;;2.47;1.27;;;16.80;52.10;;;;;;5082021;28;20193;-70
2023/02/01 00:41:15;;;;;;;2.72;1.25;;;16.90;51.40;;;;;;5081921;28;20029;-70
2023/02/01 00:43:42;;;;;;;2.15;1.35;;;17.10;51.10;;;;;;5081830;28;20047;-70
2023/02/01 00:46:09;;;;;;;3.80;1.42;;;17.20;51.60;;;;;;5081742;28;20024;-70
2023/02/01 00:48:36;;;;;;;2.45;1.10;;;17.20;50.80;;;;;;5081601;28;20064;-71
2023/02/01 00:51:04;;;;;;;3.83;1.23;;;17.20;50.60;;;;;;5081602;28;20024;-72
2023/02/01 00:53:30;;;;;;;2.65;1.17;;;17.30;50.40;;;;;;5081634;28;20047;-71
2023/02/01 00:55:56;;;;;;;2.55;1.50;;;17.30;50.40;;;;;;5081451;28;20024;-71
2023/02/01 00:58:25;;;;;;;3.13;1.38;;;17.40;50.40;;;;;;5081480;28;20291;-70
2023/02/01 01:01:16;;;;;;;2.45;1.35;;;17.40;50.20;;;;;;5081454;28;20070;-71
2023/02/01 01:03:44;;;;;;;8.30;1.20;;;17.40;50.20;;;;;;5081335;28;20029;-70
2023/02/01 01:06:13;;;;;;;1.27;1.05;;;17.40;50.30;;;;;;5081495;28;20395;-70
2023/02/01 01:08:40;;;;;;;4.10;1.73;;;17.30;50.40;;;;;;5081099;28;20471;-70
2023/02/01 01:11:20;;;;;;;3.38;0.90;;;17.20;50.90;;;;;;5081184;28;20032;-70
2023/02/01 01:13:50;;;;;;;3.78;1.40;;;17.10;51.00;;;;;;5081193;28;20201;-70
2023/02/01 01:16:17;;;;;;;2.38;0.98;;;17.10;51.30;;;;;;5081195;28;20265;-71
2023/02/01 01:18:43;;;;;;;1.85;1.02;;;17.00;51.50;;;;;;5081145;28;20043;-71
2023/02/01 01:21:11;;;;;;;2.97;1.27;;;16.90;51.70;;;;;;5081178;28;20051;-71
2023/02/01 01:23:37;;;;;;;1.00;0.80;;;16.80;51.70;;;;;;5080457;28;20052;-71
2023/02/01 01:26:13;;;;;;;1.98;1.00;;;16.80;51.70;;;;;;5081041;28;20036;-71
2023/02/01 01:28:39;;;;;;;4.38;1.60;;;16.70;51.90;;;;;;5081034;28;20028;-70
2023/02/01 01:31:08;;;;;;;2.15;1.65;;;16.70;51.80;;;;;;5080919;28;20201;-70
2023/02/01 01:33:34;;;;;;;1.95;0.93;;;16.70;51.90;;;;;;5080961;28;20021;-70
2023/02/01 01:36:00;;;;;;;1.80;1.02;;;16.60;51.80;;;;;;5080886;28;20016;-71
2023/02/01 01:38:25;;;;;;;2.10;0.98;;;16.60;51.60;;;;;;5080859;28;20039;-70
2023/02/01 01:40:51;;;;;;;3.40;1.35;;;16.50;51.70;;;;;;5080833;28;20069;-70
2023/02/01 01:43:22;;;;;;;3.95;1.55;;;16.50;52.10;;;;;;5080734;28;20036;-71
2023/02/01 01:45:49;;;;;;;1.63;0.80;;;16.50;52.10;;;;;;5080925;28;20077;-70
2023/02/01 01:48:29;;;;;;;3.05;1.00;;;16.50;52.10;;;;;;5080703;28;20118;-71
2023/02/01 01:51:08;;;;;;;2.25;0.90;;;16.60;52.30;;;;;;5080692;28;20319;-70
2023/02/01 01:53:42;;;;;;;3.83;1.17;;;16.70;52.20;;;;;;5080644;28;20074;-70
2023/02/01 01:56:08;;;;;;;2.40;1.08;;;16.80;52.30;;;;;;5080663;28;20032;-71
2023/02/01 01:58:34;;;;;;;2.13;0.90;;;16.90;52.00;;;;;;5080656;28;20351;-70
2023/02/01 02:01:00;;;;;;;2.05;0.90;;;17.00;51.70;;;;;;5080628;28;20025;-70
2023/02/01 02:03:34;;;;;;;3.05;0.85;;;17.10;51.50;;;;;;5080556;28;20137;-71
2023/02/01 02:06:02;;;;;;;1.67;1.08;;;17.20;51.20;;;;;;5080602;28;20066;-70
2023/02/01 02:08:28;;;;;;;2.53;1.37;;;17.20;51.10;;;;;;5079050;28;20291;-70
2023/02/01 02:11:01;;;;;;;1.85;1.10;;;17.30;51.10;;;;;;5080507;28;20052;-70
2023/02/01 02:13:38;;;;;;;1.83;0.95;;;17.30;50.90;;;;;;5080623;28;20344;-71
2023/02/01 02:16:36;;;;;;;3.38;0.95;;;17.40;51.00;;;;;;5080546;28;20091;-71
2023/02/01 02:19:17;;;;;;;1.05;0.60;;;17.40;50.80;;;;;;5080417;28;20251;-70
2023/02/01 02:22:09;;;;;;;3.10;0.90;;;17.40;50.70;;;;;;5079216;28;20024;-70
2023/02/01 02:25:02;;;;;;;2.35;1.10;;;17.30;50.80;;;;;;5080368;28;20040;-70
2023/02/01 02:27:58;;;;;;;1.10;0.73;;;17.20;50.90;;;;;;5080365;28;20074;-70
2023/02/01 02:30:51;;;;;;;3.38;0.80;;;17.10;51.40;;;;;;5080331;28;20025;-70
2023/02/01 02:33:55;;;;;;;1.80;0.82;;;17.00;51.60;;;;;;5080279;28;20024;-71
2023/02/01 02:36:39;;;;;;;2.00;0.75;;;16.90;51.70;;;;;;5083329;28;20022;-70
2023/02/01 02:39:08;;;;;;;1.27;1.00;;;16.80;51.90;;;;;;5084293;28;20020;-70
2023/02/01 02:47:50;;;;;;;1.80;1.00;;;16.70;52.20;;;;;;5084048;28;20075;-70
2023/02/01 03:04:38;;;;;;;2.13;0.80;;;16.50;52.60;;;;;;5083762;28;20036;-70
2023/02/01 03:07:33;;;;;;;1.88;0.85;;;16.70;52.60;;;;;;5083674;28;20012;-71
2023/02/01 03:10:05;;;;;;;2.83;1.10;;;16.80;52.50;;;;;;5083492;28;20371;-70
2023/02/01 03:15:26;;;;;;;3.28;1.15;;;17.00;52.00;;;;;;5083497;28;20075;-71
2023/02/01 03:17:55;;;;;;;0.57;0.55;;;17.20;51.70;;;;;;5083549;28;20054;-70
2023/02/01 03:20:22;;;;;;;2.20;0.95;;;17.20;51.50;;;;;;5083485;28;20118;-71
2023/02/01 03:22:51;;;;;;;2.78;1.15;;;17.20;51.40;;;;;;5082142;28;20295;-70
2023/02/01 03:25:30;;;;;;;3.05;1.00;;;17.20;51.30;;;;;;5083544;28;20038;-70
2023/02/01 03:28:08;;;;;;;2.05;0.70;;;17.30;51.20;;;;;;5083585;28;20040;-70
2023/02/01 03:30:42;;;;;;;1.33;0.90;;;17.30;51.10;;;;;;5083369;28;20020;-71
2023/02/01 03:33:21;;;;;;;1.15;0.80;;;17.20;51.10;;;;;;5083330;28;20017;-71
2023/02/01 03:36:09;;;;;;;2.08;0.77;;;17.20;51.10;;;;;;5081959;28;20121;-70
2023/02/01 03:38:54;;;;;;;2.60;0.73;;;17.10;51.40;;;;;;5083181;28;20024;-70
2023/02/01 03:41:31;;;;;;;2.58;0.73;;;17.00;51.60;;;;;;5083143;28;20021;-71
2023/02/01 03:43:57;;;;;;;2.08;0.70;;;16.90;51.60;;;;;;5083086;28;20021;-71
2023/02/01 03:46:32;;;;;;;1.55;0.93;;;16.80;52.00;;;;;;5082506;28;20033;-71
2023/02/01 03:49:06;;;;;;;3.15;0.90;;;16.80;51.90;;;;;;5082953;28;20198;-71
2023/02/01 03:51:33;;;;;;;1.85;0.60;;;16.70;51.70;;;;;;5082821;28;20044;-71
2023/02/01 03:54:01;;;;;;;1.63;0.70;;;16.70;52.10;;;;;;5082903;28;20029;-71
2023/02/01 03:56:29;;;;;;;1.65;1.08;;;16.60;52.00;;;;;;5082776;28;20017;-70
2023/02/01 03:58:58;;;;;;;2.25;0.80;;;16.60;52.20;;;;;;5082624;28;20039;-71
2023/02/01 04:01:29;;;;;;;1.70;0.95;;;16.50;52.30;;;;;;5082676;28;20336;-71
2023/02/01 04:03:56;;;;;;;2.55;0.90;;;16.50;52.50;;;;;;5082664;28;20020;-71
2023/02/01 04:06:23;;;;;;;2.50;1.00;;;16.40;52.50;;;;;;5081346;28;20024;-70
2023/02/01 04:08:50;;;;;;;1.40;0.68;;;16.40;52.60;;;;;;5082325;28;20122;-71
2023/02/01 04:11:16;;;;;;;1.55;0.80;;;16.40;52.60;;;;;;5082582;28;20062;-71
2023/02/01 04:13:42;;;;;;;1.48;0.77;;;16.50;52.60;;;;;;5082402;28;20025;-71
2023/02/01 04:16:08;;;;;;;1.38;0.60;;;16.60;52.60;;;;;;5082616;28;20035;-71
2023/02/01 04:18:34;;;;;;;0.65;0.60;;;16.70;52.40;;;;;;5082525;28;20031;-71
2023/02/01 04:21:01;;;;;;;1.48;1.00;;;16.80;52.30;;;;;;5082466;28;20035;-70
2023/02/01 04:23:28;;;;;;;2.10;1.00;;;17.00;52.10;;;;;;5082340;28;20055;-71
2023/02/01 04:25:58;;;;;;;2.55;1.00;;;17.00;51.80;;;;;;5082315;28;20224;-71
2023/02/01 04:28:24;;;;;;;1.85;0.80;;;17.10;51.80;;;;;;5082492;28;20024;-71
2023/02/01 04:30:50;;;;;;;1.35;0.70;;;17.10;51.70;;;;;;5082119;28;20039;-71
2023/02/01 04:33:15;;;;;;;1.48;0.70;;;17.10;51.60;;;;;;5080785;28;20065;-71
2023/02/01 04:35:41;;;;;;;3.38;0.82;;;17.20;51.40;;;;;;5082027;28;20321;-71
2023/02/01 04:38:07;;;;;;;2.47;0.68;;;17.30;51.30;;;;;;5081939;28;20032;-71
2023/02/01 04:40:33;;;;;;;2.17;0.80;;;17.30;51.20;;;;;;5081971;28;20017;-70
2023/02/01 04:43:01;;;;;;;2.15;0.73;;;17.20;51.20;;;;;;5081884;28;20028;-71
2023/02/01 04:45:27;;;;;;;1.52;1.42;;;17.10;51.30;;;;;;5081876;28;20107;-71
2023/02/01 04:47:52;;;;;;;1.85;0.90;;;17.10;51.50;;;;;;5081802;28;20251;-71
2023/02/01 04:50:18;;;;;;;1.77;0.70;;;17.00;51.60;;;;;;5081717;28;20028;-71
2023/02/01 04:52:45;;;;;;;2.75;1.15;;;16.90;51.80;;;;;;5081636;28;20028;-71
2023/02/01 04:55:13;;;;;;;1.40;0.60;;;16.80;51.90;;;;;;5081680;28;20209;-71
2023/02/01 04:57:40;;;;;;;3.07;1.17;;;16.80;52.00;;;;;;5081584;28;20031;-70
2023/02/01 05:00:08;;;;;;;1.02;0.60;;;16.70;52.20;;;;;;5080664;28;20257;-71
2023/02/01 05:02:34;;;;;;;0.75;0.63;;;16.70;52.30;;;;;;5081471;28;20040;-71
2023/02/01 05:05:01;;;;;;;1.52;1.00;;;16.60;52.40;;;;;;5081456;28;20028;-71
2023/02/01 05:07:27;;;;;;;3.22;0.80;;;16.50;52.50;;;;;;5081383;28;20084;-71
2023/02/01 05:09:52;;;;;;;1.23;0.80;;;16.50;52.50;;;;;;5081227;28;20052;-71
2023/02/01 05:15:03;;;;;;;1.58;0.85;;;16.40;52.60;;;;;;5081241;28;20028;-70
2023/02/01 05:17:29;;;;;;;0.93;0.55;;;16.40;52.60;;;;;;5081160;28;20017;-70
2023/02/01 05:19:54;;;;;;;2.35;0.52;;;16.40;52.60;;;;;;5081161;28;20027;-70
2023/02/01 05:22:20;;;;;;;1.85;0.70;;;16.50;52.60;;;;;;5081123;28;20024;-71
2023/02/01 05:24:46;;;;;;;1.08;0.77;;;16.60;52.70;;;;;;5081028;28;20354;-70
2023/02/01 05:27:12;;;;;;;1.42;1.00;;;16.70;52.50;;;;;;5080982;28;20223;-70
2023/02/01 05:29:38;;;;;;;1.58;0.70;;;16.80;52.30;;;;;;5079630;28;20024;-70
2023/02/01 05:32:03;;;;;;;3.25;1.10;;;16.90;52.20;;;;;;5080876;28;20087;-70
2023/02/01 05:34:29;;;;;;;0.85;0.63;;;17.00;52.00;;;;;;5080916;28;20016;-70
2023/02/01 05:36:55;;;;;;;1.08;0.60;;;17.10;51.80;;;;;;5080913;28;20024;-70
2023/02/01 05:39:21;;;;;;;2.33;0.60;;;17.10;51.80;;;;;;5079678;28;20052;-70
2023/02/01 05:41:47;;;;;;;1.50;0.50;;;17.10;51.70;;;;;;5080907;28;20035;-70
2023/02/01 05:44:12;;;;;;;1.40;1.00;;;17.20;51.60;;;;;;5080926;28;20084;-71
2023/02/01 05:46:38;;;;;;;1.10;0.50;;;17.20;51.40;;;;;;5079553;28;20099;-71
2023/02/01 05:49:05;;;;;;;0.50;0.50;;;17.30;51.30;;;;;;5080831;28;20032;-70
2023/02/01 05:51:31;;;;;;;1.25;0.60;;;17.30;51.20;;;;;;5080883;28;20092;-70
2023/02/01 05:53:57;;;;;;;0.57;0.40;;;17.20;51.30;;;;;;5080936;28;20337;-70
2023/02/01 05:56:22;;;;;;;1.52;0.63;;;17.10;51.40;;;;;;5080902;28;20016;-70
2023/02/01 05:58:48;;;;;;;1.45;0.82;;;17.00;51.50;;;;;;5080652;28;20202;-70
2023/02/01 06:01:14;;;;;;;2.20;0.60;;;16.90;51.70;;;;;;5080640;28;20023;-70
2023/02/01 06:03:40;;;;;;;1.17;0.88;;;16.90;51.90;;;;;;5080633;28;20030;-70
2023/02/01 06:06:06;;;;;;;1.45;0.70;;;16.80;52.00;;;;;;5080597;28;20024;-69
2023/02/01 06:08:31;;;;;;;1.40;0.60;;;16.70;52.10;;;;;;5079086;28;20028;-70
2023/02/01 06:11:03;;;;;;;1.70;0.95;;;16.70;52.30;;;;;;5080435;28;20032;-70
2023/02/01 06:13:29;;;;;;;1.85;0.70;;;16.60;52.40;;;;;;5079304;28;20229;-70
2023/02/01 06:15:56;;;;;;;0.57;0.52;;;16.60;52.40;;;;;;5080549;28;20316;-70
2023/02/01 06:18:24;;;;;;;2.03;0.73;;;16.50;52.50;;;;;;5080495;28;20074;-71
2023/02/01 06:20:54;;;;;;;0.95;0.55;;;16.50;52.60;;;;;;5080510;28;20351;-70
2023/02/01 06:23:23;;;;;;;0.80;0.47;;;16.50;52.60;;;;;;5080560;28;20024;-70
2023/02/01 06:25:59;;;;;;;2.00;0.70;;;16.40;52.60;;;;;;5080417;28;20054;-71
2023/02/01 06:28:25;;;;;;;0.70;0.50;;;16.40;53.20;;;;;;5080419;28;20340;-70
2023/02/01 06:30:50;;;;;;;1.30;0.80;;;16.40;52.80;;;;;;5080347;28;20016;-70
2023/02/01 06:33:16;;;;;;;0.75;0.60;;;16.40;52.80;;;;;;5080377;28;20085;-71
2023/02/01 06:35:44;;;;;;;0.90;0.73;;;16.50;52.80;;;;;;5080414;28;20039;-70
2023/02/01 06:38:11;;;;;;;1.33;0.57;;;16.60;52.70;;;;;;5080350;28;20040;-71
2023/02/01 06:40:37;;;;;;;1.27;0.80;;;16.70;52.50;;;;;;5080263;28;20025;-71
2023/02/01 06:43:03;;;;;;;1.35;0.70;;;16.80;52.30;;;;;;5080185;28;20457;-71
2023/02/01 06:45:29;;;;;;;1.17;0.70;;;16.90;51.80;;;;;;5080191;28;20082;-71
2023/02/01 06:47:55;;;;;;;1.55;0.70;;;17.00;51.40;;;;;;5080139;28;20095;-70
2023/02/01 06:50:21;;;;;;;0.82;0.82;;;17.10;51.40;;;;;;5080206;28;20020;-70
2023/02/01 06:52:47;;;;;;;0.63;0.40;;;17.10;51.50;;;;;;5080083;28;20280;-71
2023/02/01 06:55:13;;;;;;;1.33;0.85;;;17.20;51.40;;;;;;5080147;28;20021;-71
2023/02/01 06:57:39;;;;;;;2.47;0.65;;;17.30;51.30;;;;;;5080050;28;20216;-71
2023/02/01 07:00:05;;;;;;;0.95;0.60;;;17.30;51.10;;;;;;5080133;28;20427;-70
2023/02/01 07:02:31;;;;;;;0.95;0.57;;;17.30;51.00;;;;;;5080136;28;20024;-71
2023/02/01 07:04:57;;;;;;;0.80;0.50;;;17.20;51.00;;;;;;5080146;28;20097;-71
2023/02/01 07:07:23;;;;;;;0.60;0.50;;;17.20;51.10;;;;;;5080172;28;20327;-71
2023/02/01 07:09:49;;;;;;;0.80;0.60;;;17.10;51.20;;;;;;5080111;28;20075;-71
2023/02/01 07:12:15;;;;;;;1.10;0.50;;;17.10;51.30;;;;;;5080181;28;20483;-72
2023/02/01 07:14:41;;;;;;;0.63;0.60;;;17.20;51.30;;;;;;5080261;28;20052;-71
2023/02/01 07:17:07;;;;;;;0.93;0.60;;;17.30;51.20;;;;;;5080090;28;20312;-71
2023/02/01 07:19:33;;;;;;;0.50;0.50;;;17.40;51.00;;;;;;5080012;28;20024;-71
2023/02/01 07:21:59;;;;;;;1.77;0.63;;;17.50;50.80;;;;;;5080711;28;20104;-71
2023/02/01 07:24:24;;;;;;;1.23;0.55;;;17.50;50.60;;;;;;5083604;28;20020;-71
2023/02/01 07:26:50;;;;;;;0.90;0.50;;;17.50;50.40;;;;;;5083479;28;20032;-72
2023/02/01 07:29:18;;;;;;;0.68;0.60;;;17.50;50.00;;;;;;5083513;28;20028;-71
2023/02/01 07:31:44;;;;;;;1.08;0.60;;;17.50;50.30;;;;;;5083380;28;20321;-71
2023/02/01 07:34:09;;;;;;;1.33;0.52;;;17.60;50.30;;;;;;5083387;28;20088;-72
2023/02/01 07:36:36;;;;;;;1.50;0.68;;;17.60;50.30;;;;;;5083293;28;20507;-72
2023/02/01 07:39:05;;;;;;;1.98;0.85;;;17.70;50.20;;;;;;5083319;28;20025;-71
2023/02/01 07:41:31;;;;;;;1.27;0.73;;;17.70;50.00;;;;;;5083218;28;20029;-71
2023/02/01 07:43:57;;;;;;;0.90;0.60;;;17.70;50.00;;;;;;5083148;28;20379;-71
2023/02/01 07:46:23;;;;;;;3.92;0.88;;;17.80;49.90;;;;;;5083155;28;20033;-72
2023/02/01 07:48:49;;;;;;;1.17;0.60;;;17.80;49.90;;;;;;5083118;28;20020;-71
2023/02/01 07:51:16;;;;;;;1.25;0.50;;;17.90;49.80;;;;;;5083056;28;20027;-71
2023/02/01 07:53:43;;;;;;;1.10;0.50;;;17.90;50.40;;;;;;5083061;28;20027;-71
2023/02/01 07:56:18;;;;;;;1.35;0.63;;;18.00;49.50;;;;;;5083060;28;20024;-72
2023/02/01 07:58:48;;;;;;;0.88;0.52;;;18.10;49.40;;;;;;5083088;28;20024;-71
2023/02/01 08:01:24;;;;;;;2.13;0.40;;;18.10;49.40;;;;;;5083004;28;20362;-71
2023/02/01 08:04:12;;;;;;;1.17;0.82;;;18.00;49.40;;;;;;5083117;28;20116;-71
2023/02/01 08:06:38;;;;;;;;;;;18.00;49.50;;;;;;5083341;28;20027;-70
2023/02/01 08:09:05;;;;;;;0.85;0.50;;;18.00;49.60;;;;;;5082660;28;19916;-70
2023/02/01 08:11:31;;;;;;;0.57;0.45;;;18.00;49.70;;;;;;5082654;28;20356;-71
2023/02/01 08:13:58;;;;;;;1.80;0.60;;;18.00;49.70;;;;;;5082643;28;20080;-70
2023/02/01 08:16:25;;;;;;;0.63;0.40;;;18.00;49.70;;;;;;5082561;28;20088;-71
2023/02/01 08:18:52;;;;;;;0.73;0.40;;;18.00;49.80;;;;;;5082620;28;20321;-71
2023/02/01 08:21:22;;;;;;;2.00;0.88;;;17.90;49.80;;;;;;5082491;28;20091;-71
2023/02/01 08:23:48;;;;;;;0.85;0.60;;;17.90;49.90;;;;;;5082420;28;20032;-71
2023/02/01 08:26:16;;;;;;;1.10;0.60;;;17.90;49.90;;;;;;5082408;28;20096;-70
2023/02/01 08:28:46;;;;;;;0.70;0.50;;;17.90;50.00;;;;;;5082336;28;20067;-71
2023/02/01 08:31:14;;;;;;;0.80;0.50;;;17.90;50.10;;;;;;5082279;28;20031;-71
2023/02/01 08:33:41;;;;;;;1.35;0.60;;;17.90;50.20;;;;;;5082110;28;20013;-71
2023/02/01 08:36:08;;;;;;;0.70;0.50;;;17.90;50.20;;;;;;5080988;28;20028;-71
2023/02/01 08:38:36;;;;;;;0.70;0.70;;;17.90;50.20;;;;;;5082038;28;20247;-71
2023/02/01 08:41:07;;;;;;;1.70;0.70;;;17.90;50.20;;;;;;5082055;28;20016;-70
2023/02/01 08:43:33;;;;;;;1.13;0.40;;;17.90;50.30;;;;;;5080741;28;20020;-70
2023/02/01 08:45:59;;;;;;;0.77;0.60;;;17.90;50.20;;;;;;5081982;28;20039;-71
2023/02/01 08:48:25;;;;;;;0.77;0.40;;;17.90;50.40;;;;;;5081899;28;20032;-71
2023/02/01 08:50:50;;;;;;;0.68;0.47;;;17.80;50.40;;;;;;5081723;28;20220;-71
2023/02/01 08:53:16;;;;;;;0.47;0.47;;;17.80;50.50;;;;;;5081823;28;20020;-70
2023/02/01 08:55:42;;;;;;;1.00;0.50;;;17.90;50.50;;;;;;5081733;28;20072;-71
2023/02/01 08:58:08;;;;;;;1.13;0.60;;;17.90;50.50;;;;;;5081723;28;20134;-71
2023/02/01 09:00:34;;;;;;;0.38;0.35;;;17.90;50.50;;;;;;5081583;28;20031;-71
2023/02/01 09:02:59;;;;;;;2.58;0.55;;;17.90;50.50;;;;;;5081640;28;20099;-70
2023/02/01 09:05:26;;;;;;;0.85;0.55;;;17.90;50.50;;;;;;5081572;28;20086;-70
2023/02/01 09:07:52;;;;;;;1.30;0.60;;;17.90;50.50;;;;;;5081500;28;20027;-70
2023/02/01 09:10:18;;;;;;;0.40;0.40;;;17.90;50.60;;;;;;5080167;28;20059;-70
2023/02/01 09:12:44;;;;;;;0.82;0.47;;;17.90;50.60;;;;;;5081377;28;20020;-71
2023/02/01 09:15:10;;;;;;;1.38;0.57;;;17.90;50.60;;;;;;5080183;28;20031;-70
2023/02/01 09:17:37;;;;;;;2.05;0.70;;;17.90;50.60;;;;;;5081344;28;20017;-70
2023/02/01 09:20:03;;;;;;;0.80;0.70;;;17.90;50.60;;;;;;5081392;28;20080;-70
2023/02/01 09:22:29;;;;;;;0.65;0.52;;;17.90;50.60;;;;;;5080018;28;20099;-70
2023/02/01 09:24:55;;;;;;;0.63;0.47;;;17.90;50.60;;;;;;5081241;28;20029;-71
2023/02/01 09:27:21;;;;;;;0.65;0.50;;;17.90;50.60;;;;;;5081274;28;20151;-71
2023/02/01 09:29:52;;;;;;;0.85;0.40;;;17.90;50.70;;;;;;5079879;28;20028;-71
2023/02/01 09:32:19;;;;;;;1.17;0.63;;;17.90;50.70;;;;;;5079875;28;20021;-70
2023/02/01 09:34:45;;;;;;;0.57;0.55;;;17.90;50.70;;;;;;5081332;28;20172;-71
2023/02/01 09:37:11;;;;;;;0.50;0.50;;;17.90;50.70;;;;;;5081215;28;20332;-71
2023/02/01 09:39:37;;;;;;;1.10;0.75;;;17.90;50.70;;;;;;5080961;28;20025;-71
2023/02/01 09:42:44;;;;;;;0.57;0.57;;;17.90;50.70;;;;;;5081022;28;20070;-71
2023/02/01 09:45:30;;;;;;;1.13;0.40;;;17.90;50.60;;;;;;5080429;28;20050;-71
2023/02/01 09:48:02;;;;;;;0.60;0.50;;;17.90;50.60;;;;;;5080490;28;20028;-71
2023/02/01 09:50:37;;;;;;;0.40;0.40;;;17.90;50.70;;;;;;5080783;28;20020;-71
2023/02/01 09:53:24;;;;;;;0.80;0.60;;;17.90;50.70;;;;;;5080762;28;20231;-71
2023/02/01 09:55:54;;;;;;;0.80;0.60;;;17.90;50.70;;;;;;5080749;28;20016;-70
2023/02/01 09:58:30;;;;;;;1.23;0.50;;;17.90;50.70;;;;;;5080801;28;20087;-70
2023/02/01 10:00:58;;;;;;;1.15;0.63;;;17.90;50.70;;;;;;5080740;28;20031;-70
2023/02/01 10:03:26;;;;;;;;;;;17.90;50.70;;;;;;5081158;28;20051;-70
2023/02/01 10:06:34;;;;;;;0.50;0.40;;;17.90;50.70;;;;;;5080776;28;19905;-71
2023/02/01 10:09:18;;;;;;;0.53;0.50;;;18.00;50.70;;;;;;5065950;28;20094;-70
2023/02/01 10:12:14;;;;;;;1.08;0.50;;;17.90;50.70;;;;;;5080532;28;20085;-70
2023/02/01 10:14:52;;;;;;;0.60;0.40;;;18.00;50.80;;;;;;5080641;28;20339;-70
2023/02/01 10:17:43;;;;;;;0.75;0.60;;;18.00;50.70;;;;;;5080563;28;20032;-72
2023/02/01 10:20:12;;;;;;;0.32;0.30;;;18.00;50.70;;;;;;5080541;28;20138;-71
2023/02/01 10:22:44;;;;;;;0.80;0.47;;;18.00;50.70;;;;;;5080441;28;20031;-71
2023/02/01 10:25:25;;;;;;;0.38;0.38;;;18.10;50.70;;;;;;5080472;28;20100;-71
2023/02/01 10:27:51;;;;;;;1.30;0.65;;;18.10;50.70;;;;;;5079060;28;20257;-70
2023/02/01 10:30:23;;;;;;;1.20;0.70;;;18.00;50.60;;;;;;5080378;28;20096;-70
2023/02/01 10:33:01;;;;;;;1.45;0.60;;;18.00;50.70;;;;;;5080305;28;20224;-71
2023/02/01 10:35:36;;;;;;;0.63;0.63;;;18.00;50.70;;;;;;5080401;28;20619;-71
2023/02/01 10:38:02;;;;;;;0.77;0.68;;;18.00;50.70;;;;;;5079059;28;20410;-71
2023/02/01 10:40:28;;;;;;;0.77;0.60;;;18.00;50.70;;;;;;5079028;28;20020;-70
2023/02/01 10:42:59;;;;;;;0.80;0.40;;;18.10;50.70;;;;;;5080329;28;20047;-70
2023/02/01 10:45:27;;;;;;;0.88;0.40;;;18.00;50.70;;;;;;5080260;28;20020;-71
2023/02/01 10:47:55;;;;;;;0.30;0.30;;;18.00;50.60;;;;;;5080308;28;20123;-71
2023/02/01 10:50:21;;;;;;;1.35;0.90;;;18.00;50.70;;;;;;5080409;28;20020;-71
2023/02/01 10:53:18;;;;;;;0.60;0.50;;;18.00;50.70;;;;;;5080350;28;20086;-71
2023/02/01 10:55:51;;;;;;;0.40;0.40;;;18.00;50.70;;;;;;5072735;28;20032;-71
2023/02/01 10:58:27;;;;;;;0.40;0.40;;;18.00;50.70;;;;;;5082979;28;20048;-72
2023/02/01 11:01:10;;;;;;;0.60;0.47;;;18.00;50.70;;;;;;5083990;28;20047;-71
2023/02/01 11:03:44;;;;;;;2.38;0.50;;;18.10;50.80;;;;;;5083952;28;20070;-71
2023/02/01 11:06:22;;;;;;;1.00;0.45;;;18.10;50.80;;;;;;5083826;28;20013;-71
2023/02/01 11:08:52;;;;;;;1.67;0.50;;;18.00;50.70;;;;;;5083632;28;20024;-70
2023/02/01 11:11:18;;;;;;;1.45;0.40;;;18.00;50.80;;;;;;5083739;28;20281;-70
2023/02/01 11:13:51;;;;;;;0.88;0.43;;;18.00;50.80;;;;;;5083748;28;20028;-72
2023/02/01 11:16:19;;;;;;;1.45;0.40;;;18.10;50.80;;;;;;5083679;28;20291;-69
2023/02/01 11:18:45;;;;;;;0.73;0.40;;;18.10;50.80;;;;;;5083699;28;20044;-71
2023/02/01 11:21:11;;;;;;;1.08;0.40;;;18.10;50.80;;;;;;5083661;28;20052;-71
2023/02/01 11:23:44;;;;;;;2.10;0.60;;;18.10;50.80;;;;;;5083560;28;20032;-70
2023/02/01 11:26:24;;;;;;;0.93;0.45;;;18.10;50.80;;;;;;5083494;28;20017;-70
2023/02/01 11:29:04;;;;;;;0.50;0.50;;;18.10;50.80;;;;;;5083577;28;20328;-70
2023/02/01 11:31:32;;;;;;;16.98;3.05;;;18.00;50.80;;;;;;5083368;28;20044;-69
2023/02/01 11:34:27;;;;;;;10.50;1.90;;;17.50;48.10;;;;;;5083683;28;20209;-72
2023/02/01 11:36:57;;;;;;;4.80;2.33;;;17.10;43.00;;;;;;5098545;28;20131;-69
2023/02/01 11:39:29;;;;;;;2.63;1.73;;;16.00;44.50;;;;;;5102963;28;20075;-71
2023/02/01 11:42:12;;;;;;;17.25;1.65;;;16.60;48.60;;;;;;5103471;28;20099;-70
2023/02/01 11:44:41;;;;;;;10.32;1.75;;;17.10;50.30;;;;;;5103390;28;20044;-71
2023/02/01 11:47:26;;;;;;;4.25;1.10;;;17.40;50.60;;;;;;5103346;28;20024;-71
2023/02/01 11:50:02;;;;;;;6.35;1.10;;;17.60;50.50;;;;;;5103041;28;20268;-71
2023/02/01 11:52:49;;;;;;;9.82;1.98;;;17.70;50.50;;;;;;5103138;28;20019;-71
2023/02/01 11:55:38;;;;;;;12.15;2.35;;;17.80;50.50;;;;;;5101905;28;20197;-70
2023/02/01 11:58:26;;;;;;;;;;;17.90;50.40;;;;;;5102435;28;20020;-69
2023/02/01 12:01:22;;;;;;;6.78;1.92;;;17.90;50.60;;;;;;5073094;28;19908;-68
2023/02/01 12:03:54;;;;;;;4.45;1.48;;;18.00;50.70;;;;;;5102847;28;20020;-71
2023/02/01 12:06:43;;;;;;;7.70;1.40;;;18.00;50.80;;;;;;5102970;28;20024;-71
2023/02/01 12:09:50;;;;;;;7.30;1.60;;;18.00;50.80;;;;;;5102209;28;20055;-71
2023/02/01 12:12:25;;;;;;;6.82;1.55;;;18.10;50.80;;;;;;5102793;28;20324;-71
2023/02/01 12:15:02;;;;;;;6.55;1.40;;;18.10;50.90;;;;;;5102797;28;20046;-73
2023/02/01 12:17:39;;;;;;;8.73;1.75;;;18.10;51.10;;;;;;5102795;28;20092;-71
2023/02/01 12:20:27;;;;;;;10.50;2.10;;;18.10;51.20;;;;;;5102653;28;20371;-70
2023/02/01 12:23:00;;;;;;;;;;;18.20;51.10;;;;;;5103128;28;20039;-72
2023/02/01 12:25:53;;;;;;;7.32;1.38;;;18.20;51.10;;;;;;5101176;28;19931;-74
2023/02/01 12:28:48;;;;;;;7.30;1.60;;;18.20;51.10;;;;;;5102552;28;20028;-70
2023/02/01 12:31:36;;;;;;;8.80;1.90;;;18.20;51.20;;;;;;5102003;28;20069;-71
2023/02/01 12:34:14;;;;;;;11.45;1.52;;;18.20;51.20;;;;;;5102312;28;20198;-71
2023/02/01 12:36:49;;;;;;;7.10;1.50;;;18.20;51.30;;;;;;5102637;28;20020;-71
2023/02/01 12:39:32;;;;;;;5.45;1.33;;;18.20;51.40;;;;;;5121271;28;20019;-72
2023/02/01 12:42:08;;;;;;;9.80;1.20;;;18.20;51.40;;;;;;5122553;28;20230;-72
2023/02/01 12:44:43;;;;;;;13.25;2.00;;;18.20;51.50;;;;;;5122316;28;20024;-72
2023/02/01 12:47:33;;;;;;;10.25;1.40;;;18.20;51.50;;;;;;5122500;28;20027;-72
2023/02/01 12:50:21;;;;;;;7.38;1.52;;;18.30;51.50;;;;;;5122447;28;20023;-72
2023/02/01 12:52:54;;;;;;;6.47;1.67;;;18.20;51.60;;;;;;5122250;28;20030;-73
2023/02/01 12:55:48;;;;;;;12.32;1.27;;;18.30;51.60;;;;;;5122476;28;20023;-72
2023/02/01 12:58:38;;;;;;;11.57;1.98;;;18.30;51.60;;;;;;5122428;28;20269;-71
2023/02/01 13:01:28;;;;;;;12.48;1.38;;;18.30;51.60;;;;;;5122146;28;20019;-70
2023/02/01 13:04:17;;;;;;;5.78;1.20;;;18.30;51.60;;;;;;5122215;28;20023;-71
2023/02/01 13:06:47;;;;;;;5.68;1.40;;;18.40;51.60;;;;;;5122369;28;20026;-71
2023/02/01 13:09:38;;;;;;;10.23;1.70;;;18.30;51.80;;;;;;5121558;28;20093;-72
2023/02/01 13:12:22;;;;;;;9.90;1.58;;;18.30;51.70;;;;;;5121982;28;20047;-71
2023/02/01 13:15:00;;;;;;;8.57;1.98;;;18.30;51.70;;;;;;5122178;28;20028;-71
2023/02/01 13:17:32;;;;;;;10.85;2.13;;;18.30;51.80;;;;;;5121744;28;20116;-69
2023/02/01 13:20:23;;;;;;;25.95;3.05;;;18.40;51.90;;;;;;5120021;27;20026;-71
2023/02/01 13:23:01;;;;;;;12.10;2.47;;;18.40;51.90;;;;;;5113483;28;20043;-69
2023/02/01 13:25:49;;;;;;;9.20;2.20;;;18.30;51.80;;;;;;5121917;28;20022;-72
2023/02/01 13:28:23;;;;;;;;;;;18.40;51.70;;;;;;5122327;28;20019;-69
2023/02/01 13:30:59;;;;;;;11.05;2.13;;;18.40;51.70;;;;;;5121713;28;20251;-68
2023/02/01 13:34:15;;;;;;;14.23;2.42;;;18.40;51.80;;;;;;5121682;28;20245;-70
2023/02/01 13:36:59;;;;;;;10.70;2.28;;;18.40;51.00;;;;;;5120469;28;20023;-70
2023/02/01 13:39:43;;;;;;;9.10;2.03;;;18.40;51.10;;;;;;5121783;28;20019;-71